sensor_id;sensor_type;location;lat;lon;timestamp;P1;durP1;ratioP1;P2;durP2;ratioP2
51238;SDS011;38154;47.548;18.828;2023-04-03T00:01:17;3.67;;;2.50;;
51238;SDS011;38154;47.548;18.828;2023-04-03T00:03:44;5.97;;;3.40;;
51238;SDS011;38154;47.548;18.828;2023-04-03T00:06:10;4.43;;;2.70;;
51238;SDS011;38154;47.548;18.828;2023-04-03T00:08:37;4.03;;;2.28;;
51238;SDS011;38154;47.548;18.828;2023-04-03T00:11:04;5.85;;;3.47;;
51238;SDS011;38154;47.548;18.828;2023-04-03T00:13:30;3.22;;;2.30;;
51238;SDS011;38154;47.548;18.828;2023-04-03T00:15:57;4.20;;;2.22;;
51238;SDS011;38154;47.548;18.828;2023-04-03T00:18:23;4.50;;;3.08;;
51238;SDS011;38154;47.548;18.828;2023-04-03T00:20:49;3.53;;;2.37;;
51238;SDS011;38154;47.548;18.828;2023-04-03T00:23:15;3.03;;;2.40;;
51238;SDS011;38154;47.548;18.828;2023-04-03T00:25:41;5.07;;;2.72;;
51238;SDS011;38154;47.548;18.828;2023-04-03T00:28:08;2.40;;;2.20;;
51238;SDS011;38154;47.548;18.828;2023-04-03T00:30:34;4.93;;;3.23;;
51238;SDS011;38154;47.548;18.828;2023-04-03T00:33:00;4.32;;;2.40;;
51238;SDS011;38154;47.548;18.828;2023-04-03T00:35:27;5.28;;;3.15;;
51238;SDS011;38154;47.548;18.828;2023-04-03T00:37:54;3.75;;;2.42;;
51238;SDS011;38154;47.548;18.828;2023-04-03T00:40:22;2.40;;;1.73;;
51238;SDS011;38154;47.548;18.828;2023-04-03T00:42:52;1.80;;;1.60;;
51238;SDS011;38154;47.548;18.828;2023-04-03T00:45:23;4.47;;;2.40;;
51238;SDS011;38154;47.548;18.828;2023-04-03T00:47:52;2.50;;;2.12;;
51238;SDS011;38154;47.548;18.828;2023-04-03T00:50:18;2.20;;;1.67;;
51238;SDS011;38154;47.548;18.828;2023-04-03T00:52:44;2.28;;;2.08;;
51238;SDS011;38154;47.548;18.828;2023-04-03T00:55:12;2.22;;;2.03;;
51238;SDS011;38154;47.548;18.828;2023-04-03T00:57:39;3.40;;;2.42;;
51238;SDS011;38154;47.548;18.828;2023-04-03T01:02:37;3.90;;;2.20;;
51238;SDS011;38154;47.548;18.828;2023-04-03T01:05:06;3.70;;;2.15;;
51238;SDS011;38154;47.548;18.828;2023-04-03T01:07:33;2.25;;;2.05;;
51238;SDS011;38154;47.548;18.828;2023-04-03T01:10:01;3.15;;;2.20;;
51238;SDS011;38154;47.548;18.828;2023-04-03T01:12:32;4.12;;;2.45;;
51238;SDS011;38154;47.548;18.828;2023-04-03T01:15:02;4.45;;;3.22;;
51238;SDS011;38154;47.548;18.828;2023-04-03T01:22:33;9.95;;;2.75;;
51238;SDS011;38154;47.548;18.828;2023-04-03T01:25:04;2.60;;;2.37;;
51238;SDS011;38154;47.548;18.828;2023-04-03T01:27:30;2.50;;;2.30;;
51238;SDS011;38154;47.548;18.828;2023-04-03T01:29:56;2.05;;;1.70;;
51238;SDS011;38154;47.548;18.828;2023-04-03T01:32:23;1.52;;;1.42;;
51238;SDS011;38154;47.548;18.828;2023-04-03T01:34:49;3.35;;;2.22;;
51238;SDS011;38154;47.548;18.828;2023-04-03T01:37:14;2.87;;;2.12;;
51238;SDS011;38154;47.548;18.828;2023-04-03T01:39:40;2.37;;;1.70;;
51238;SDS011;38154;47.548;18.828;2023-04-03T01:42:06;3.53;;;2.08;;
51238;SDS011;38154;47.548;18.828;2023-04-03T01:44:32;2.70;;;1.87;;
51238;SDS011;38154;47.548;18.828;2023-04-03T01:46:58;4.18;;;2.45;;
51238;SDS011;38154;47.548;18.828;2023-04-03T01:49:24;2.00;;;1.70;;
51238;SDS011;38154;47.548;18.828;2023-04-03T01:51:50;2.17;;;1.80;;
51238;SDS011;38154;47.548;18.828;2023-04-03T01:54:16;1.75;;;1.45;;
51238;SDS011;38154;47.548;18.828;2023-04-03T01:56:41;3.03;;;2.40;;
51238;SDS011;38154;47.548;18.828;2023-04-03T01:59:07;3.45;;;2.05;;
51238;SDS011;38154;47.548;18.828;2023-04-03T02:01:33;2.30;;;1.90;;
51238;SDS011;38154;47.548;18.828;2023-04-03T02:03:59;2.20;;;1.53;;
51238;SDS011;38154;47.548;18.828;2023-04-03T02:06:25;6.62;;;2.20;;
51238;SDS011;38154;47.548;18.828;2023-04-03T02:08:51;1.73;;;1.58;;
51238;SDS011;38154;47.548;18.828;2023-04-03T02:11:17;2.55;;;1.90;;
51238;SDS011;38154;47.548;18.828;2023-04-03T02:13:43;3.05;;;2.00;;
51238;SDS011;38154;47.548;18.828;2023-04-03T02:16:09;3.50;;;2.70;;
51238;SDS011;38154;47.548;18.828;2023-04-03T02:18:36;3.00;;;1.58;;
51238;SDS011;38154;47.548;18.828;2023-04-03T02:21:03;3.92;;;2.25;;
51238;SDS011;38154;47.548;18.828;2023-04-03T02:23:29;2.60;;;1.93;;
51238;SDS011;38154;47.548;18.828;2023-04-03T02:26:02;1.40;;;1.30;;
51238;SDS011;38154;47.548;18.828;2023-04-03T02:28:31;3.87;;;1.92;;
51238;SDS011;38154;47.548;18.828;2023-04-03T02:30:57;4.87;;;2.17;;
51238;SDS011;38154;47.548;18.828;2023-04-03T02:33:23;4.53;;;2.28;;
51238;SDS011;38154;47.548;18.828;2023-04-03T02:35:53;5.85;;;2.30;;
51238;SDS011;38154;47.548;18.828;2023-04-03T02:38:20;4.30;;;2.17;;
51238;SDS011;38154;47.548;18.828;2023-04-03T02:40:46;2.83;;;2.23;;
51238;SDS011;38154;47.548;18.828;2023-04-03T02:43:12;2.73;;;2.40;;
51238;SDS011;38154;47.548;18.828;2023-04-03T02:45:38;4.65;;;2.15;;
51238;SDS011;38154;47.548;18.828;2023-04-03T02:48:05;6.20;;;3.15;;
51238;SDS011;38154;47.548;18.828;2023-04-03T02:50:31;9.07;;;3.87;;
51238;SDS011;38154;47.548;18.828;2023-04-03T02:52:57;3.67;;;2.58;;
51238;SDS011;38154;47.548;18.828;2023-04-03T02:55:22;2.33;;;1.90;;
51238;SDS011;38154;47.548;18.828;2023-04-03T02:57:48;4.03;;;2.47;;
51238;SDS011;38154;47.548;18.828;2023-04-03T03:00:14;3.40;;;1.95;;
51238;SDS011;38154;47.548;18.828;2023-04-03T03:02:40;2.47;;;2.20;;
51238;SDS011;38154;47.548;18.828;2023-04-03T03:05:06;3.17;;;2.23;;
51238;SDS011;38154;47.548;18.828;2023-04-03T03:07:33;3.25;;;2.10;;
51238;SDS011;38154;47.548;18.828;2023-04-03T03:09:59;4.05;;;2.60;;
51238;SDS011;38154;47.548;18.828;2023-04-03T03:12:24;2.62;;;2.42;;
51238;SDS011;38154;47.548;18.828;2023-04-03T03:14:50;3.85;;;2.60;;
51238;SDS011;38154;47.548;18.828;2023-04-03T03:17:16;4.57;;;2.17;;
51238;SDS011;38154;47.548;18.828;2023-04-03T03:19:43;3.00;;;2.10;;
51238;SDS011;38154;47.548;18.828;2023-04-03T03:22:09;4.50;;;2.05;;
51238;SDS011;38154;47.548;18.828;2023-04-03T03:24:35;3.35;;;2.72;;
51238;SDS011;38154;47.548;18.828;2023-04-03T03:27:00;2.85;;;2.47;;
51238;SDS011;38154;47.548;18.828;2023-04-03T03:29:26;4.32;;;2.53;;
51238;SDS011;38154;47.548;18.828;2023-04-03T03:31:52;6.00;;;2.75;;
51238;SDS011;38154;47.548;18.828;2023-04-03T03:34:18;4.62;;;1.90;;
51238;SDS011;38154;47.548;18.828;2023-04-03T03:36:44;2.53;;;1.98;;
51238;SDS011;38154;47.548;18.828;2023-04-03T03:39:10;3.75;;;2.53;;
51238;SDS011;38154;47.548;18.828;2023-04-03T03:41:36;2.00;;;1.77;;
51238;SDS011;38154;47.548;18.828;2023-04-03T03:44:02;4.50;;;2.45;;
51238;SDS011;38154;47.548;18.828;2023-04-03T03:46:28;3.03;;;2.67;;
51238;SDS011;38154;47.548;18.828;2023-04-03T03:48:54;3.53;;;2.35;;
51238;SDS011;38154;47.548;18.828;2023-04-03T03:51:19;3.05;;;2.28;;
51238;SDS011;38154;47.548;18.828;2023-04-03T03:53:45;4.43;;;2.42;;
51238;SDS011;38154;47.548;18.828;2023-04-03T03:56:11;5.57;;;3.00;;
51238;SDS011;38154;47.548;18.828;2023-04-03T03:58:37;3.17;;;2.27;;
51238;SDS011;38154;47.548;18.828;2023-04-03T04:01:04;4.32;;;1.85;;
51238;SDS011;38154;47.548;18.828;2023-04-03T04:03:31;3.60;;;2.55;;
51238;SDS011;38154;47.548;18.828;2023-04-03T04:05:57;3.30;;;2.78;;
51238;SDS011;38154;47.548;18.828;2023-04-03T04:08:24;3.78;;;2.60;;
51238;SDS011;38154;47.548;18.828;2023-04-03T04:10:50;2.50;;;1.80;;
51238;SDS011;38154;47.548;18.828;2023-04-03T04:13:16;5.00;;;2.53;;
51238;SDS011;38154;47.548;18.828;2023-04-03T04:15:42;3.85;;;2.37;;
51238;SDS011;38154;47.548;18.828;2023-04-03T04:18:08;1.83;;;1.73;;
51238;SDS011;38154;47.548;18.828;2023-04-03T04:20:34;5.43;;;2.35;;
51238;SDS011;38154;47.548;18.828;2023-04-03T04:23:00;3.12;;;2.08;;
51238;SDS011;38154;47.548;18.828;2023-04-03T04:25:26;3.83;;;2.97;;
51238;SDS011;38154;47.548;18.828;2023-04-03T04:27:52;6.90;;;3.00;;
51238;SDS011;38154;47.548;18.828;2023-04-03T04:30:18;2.40;;;2.20;;
51238;SDS011;38154;47.548;18.828;2023-04-03T04:32:44;6.12;;;2.95;;
51238;SDS011;38154;47.548;18.828;2023-04-03T04:35:10;17.08;;;6.30;;
51238;SDS011;38154;47.548;18.828;2023-04-03T04:37:36;4.40;;;2.92;;
51238;SDS011;38154;47.548;18.828;2023-04-03T04:40:01;5.12;;;2.95;;
51238;SDS011;38154;47.548;18.828;2023-04-03T04:42:27;3.40;;;2.37;;
51238;SDS011;38154;47.548;18.828;2023-04-03T04:44:53;3.50;;;1.93;;
51238;SDS011;38154;47.548;18.828;2023-04-03T04:47:19;5.47;;;3.20;;
51238;SDS011;38154;47.548;18.828;2023-04-03T04:49:45;4.20;;;3.05;;
51238;SDS011;38154;47.548;18.828;2023-04-03T04:52:12;4.18;;;2.33;;
51238;SDS011;38154;47.548;18.828;2023-04-03T04:54:38;2.53;;;2.15;;
51238;SDS011;38154;47.548;18.828;2023-04-03T04:57:04;3.70;;;2.00;;
51238;SDS011;38154;47.548;18.828;2023-04-03T04:59:30;3.95;;;2.97;;
51238;SDS011;38154;47.548;18.828;2023-04-03T05:01:56;7.57;;;4.15;;
51238;SDS011;38154;47.548;18.828;2023-04-03T05:04:22;3.87;;;2.47;;
51238;SDS011;38154;47.548;18.828;2023-04-03T05:06:48;2.15;;;1.95;;
51238;SDS011;38154;47.548;18.828;2023-04-03T05:09:14;3.33;;;2.35;;
51238;SDS011;38154;47.548;18.828;2023-04-03T05:11:40;2.58;;;2.15;;
51238;SDS011;38154;47.548;18.828;2023-04-03T05:14:08;2.72;;;1.58;;
51238;SDS011;38154;47.548;18.828;2023-04-03T05:16:34;2.17;;;1.77;;
51238;SDS011;38154;47.548;18.828;2023-04-03T05:19:00;2.17;;;1.62;;
51238;SDS011;38154;47.548;18.828;2023-04-03T05:21:26;2.67;;;2.17;;
51238;SDS011;38154;47.548;18.828;2023-04-03T05:23:54;4.72;;;2.20;;
51238;SDS011;38154;47.548;18.828;2023-04-03T05:26:20;4.40;;;2.22;;
51238;SDS011;38154;47.548;18.828;2023-04-03T05:28:46;4.32;;;2.83;;
51238;SDS011;38154;47.548;18.828;2023-04-03T05:31:12;3.00;;;2.28;;
51238;SDS011;38154;47.548;18.828;2023-04-03T05:33:38;3.37;;;1.92;;
51238;SDS011;38154;47.548;18.828;2023-04-03T05:36:04;2.47;;;2.00;;
51238;SDS011;38154;47.548;18.828;2023-04-03T05:38:31;2.87;;;2.12;;
51238;SDS011;38154;47.548;18.828;2023-04-03T05:40:57;1.70;;;1.60;;
51238;SDS011;38154;47.548;18.828;2023-04-03T05:43:23;5.62;;;3.08;;
51238;SDS011;38154;47.548;18.828;2023-04-03T05:45:50;2.45;;;1.40;;
51238;SDS011;38154;47.548;18.828;2023-04-03T05:48:16;1.58;;;1.48;;
51238;SDS011;38154;47.548;18.828;2023-04-03T05:50:42;1.98;;;1.77;;
51238;SDS011;38154;47.548;18.828;2023-04-03T05:53:19;4.05;;;1.98;;
51238;SDS011;38154;47.548;18.828;2023-04-03T05:55:48;2.80;;;1.90;;
51238;SDS011;38154;47.548;18.828;2023-04-03T05:58:14;2.45;;;1.92;;
51238;SDS011;38154;47.548;18.828;2023-04-03T06:00:39;2.78;;;1.70;;
51238;SDS011;38154;47.548;18.828;2023-04-03T06:03:05;3.20;;;2.12;;
51238;SDS011;38154;47.548;18.828;2023-04-03T06:05:31;3.90;;;2.37;;
51238;SDS011;38154;47.548;18.828;2023-04-03T06:07:57;3.05;;;1.80;;
51238;SDS011;38154;47.548;18.828;2023-04-03T06:10:23;3.03;;;2.25;;
51238;SDS011;38154;47.548;18.828;2023-04-03T06:12:50;3.60;;;2.00;;
51238;SDS011;38154;47.548;18.828;2023-04-03T06:17:42;3.10;;;2.35;;
51238;SDS011;38154;47.548;18.828;2023-04-03T06:20:09;2.90;;;2.37;;
51238;SDS011;38154;47.548;18.828;2023-04-03T06:22:36;3.00;;;1.98;;
51238;SDS011;38154;47.548;18.828;2023-04-03T06:25:02;4.53;;;2.03;;
51238;SDS011;38154;47.548;18.828;2023-04-03T06:27:28;9.45;;;4.07;;
51238;SDS011;38154;47.548;18.828;2023-04-03T06:29:54;6.13;;;3.93;;
51238;SDS011;38154;47.548;18.828;2023-04-03T06:32:20;6.33;;;3.83;;
51238;SDS011;38154;47.548;18.828;2023-04-03T06:34:46;2.83;;;2.20;;
51238;SDS011;38154;47.548;18.828;2023-04-03T06:37:15;2.23;;;1.77;;
51238;SDS011;38154;47.548;18.828;2023-04-03T06:39:43;1.65;;;1.30;;
51238;SDS011;38154;47.548;18.828;2023-04-03T06:42:09;1.83;;;1.70;;
51238;SDS011;38154;47.548;18.828;2023-04-03T06:44:35;3.15;;;1.85;;
51238;SDS011;38154;47.548;18.828;2023-04-03T06:47:01;2.60;;;1.77;;
51238;SDS011;38154;47.548;18.828;2023-04-03T06:49:27;2.30;;;1.73;;
51238;SDS011;38154;47.548;18.828;2023-04-03T06:51:53;2.35;;;1.77;;
51238;SDS011;38154;47.548;18.828;2023-04-03T06:54:19;3.73;;;1.70;;
51238;SDS011;38154;47.548;18.828;2023-04-03T06:56:45;1.67;;;1.58;;
51238;SDS011;38154;47.548;18.828;2023-04-03T06:59:12;3.12;;;1.98;;
51238;SDS011;38154;47.548;18.828;2023-04-03T07:01:39;1.90;;;1.40;;
51238;SDS011;38154;47.548;18.828;2023-04-03T07:04:06;3.25;;;1.60;;
51238;SDS011;38154;47.548;18.828;2023-04-03T07:06:33;2.08;;;1.87;;
51238;SDS011;38154;47.548;18.828;2023-04-03T07:09:00;2.10;;;1.90;;
51238;SDS011;38154;47.548;18.828;2023-04-03T07:11:26;3.80;;;1.85;;
51238;SDS011;38154;47.548;18.828;2023-04-03T07:13:52;1.92;;;1.40;;
51238;SDS011;38154;47.548;18.828;2023-04-03T07:16:18;1.58;;;1.45;;
51238;SDS011;38154;47.548;18.828;2023-04-03T07:18:45;1.48;;;1.20;;
51238;SDS011;38154;47.548;18.828;2023-04-03T07:23:38;1.77;;;1.20;;
51238;SDS011;38154;47.548;18.828;2023-04-03T07:28:30;2.97;;;1.10;;
51238;SDS011;38154;47.548;18.828;2023-04-03T07:31:00;1.35;;;1.25;;
51238;SDS011;38154;47.548;18.828;2023-04-03T07:33:28;3.85;;;2.10;;
51238;SDS011;38154;47.548;18.828;2023-04-03T07:35:55;3.15;;;1.55;;
51238;SDS011;38154;47.548;18.828;2023-04-03T07:38:20;1.47;;;1.37;;
51238;SDS011;38154;47.548;18.828;2023-04-03T07:40:47;3.37;;;1.30;;
51238;SDS011;38154;47.548;18.828;2023-04-03T07:43:14;2.67;;;1.83;;
51238;SDS011;38154;47.548;18.828;2023-04-03T07:45:41;1.65;;;1.37;;
51238;SDS011;38154;47.548;18.828;2023-04-03T07:48:09;1.87;;;1.30;;
51238;SDS011;38154;47.548;18.828;2023-04-03T07:50:39;1.25;;;1.15;;
51238;SDS011;38154;47.548;18.828;2023-04-03T07:53:06;1.25;;;1.15;;
51238;SDS011;38154;47.548;18.828;2023-04-03T07:57:58;1.25;;;1.12;;
51238;SDS011;38154;47.548;18.828;2023-04-03T08:00:24;2.23;;;1.10;;
51238;SDS011;38154;47.548;18.828;2023-04-03T08:02:50;2.70;;;1.37;;
51238;SDS011;38154;47.548;18.828;2023-04-03T08:05:17;1.42;;;1.30;;
51238;SDS011;38154;47.548;18.828;2023-04-03T08:07:44;1.23;;;1.00;;
51238;SDS011;38154;47.548;18.828;2023-04-03T08:10:10;1.55;;;1.45;;
51238;SDS011;38154;47.548;18.828;2023-04-03T08:12:36;1.17;;;1.02;;
51238;SDS011;38154;47.548;18.828;2023-04-03T08:15:03;0.97;;;0.93;;
51238;SDS011;38154;47.548;18.828;2023-04-03T08:17:30;1.00;;;1.00;;
51238;SDS011;38154;47.548;18.828;2023-04-03T08:19:55;2.77;;;1.50;;
51238;SDS011;38154;47.548;18.828;2023-04-03T08:22:21;2.87;;;2.30;;
51238;SDS011;38154;47.548;18.828;2023-04-03T08:24:47;2.87;;;2.43;;
51238;SDS011;38154;47.548;18.828;2023-04-03T08:27:13;1.13;;;1.03;;
51238;SDS011;38154;47.548;18.828;2023-04-03T08:29:39;1.17;;;1.07;;
51238;SDS011;38154;47.548;18.828;2023-04-03T08:32:05;1.90;;;0.97;;
51238;SDS011;38154;47.548;18.828;2023-04-03T08:34:31;1.80;;;1.17;;
51238;SDS011;38154;47.548;18.828;2023-04-03T08:37:00;0.73;;;0.73;;
51238;SDS011;38154;47.548;18.828;2023-04-03T08:39:27;1.08;;;1.02;;
51238;SDS011;38154;47.548;18.828;2023-04-03T08:41:54;1.65;;;1.10;;
51238;SDS011;38154;47.548;18.828;2023-04-03T08:49:42;0.73;;;0.73;;
51238;SDS011;38154;47.548;18.828;2023-04-03T08:52:17;0.80;;;0.80;;
51238;SDS011;38154;47.548;18.828;2023-04-03T08:54:58;0.90;;;0.90;;
51238;SDS011;38154;47.548;18.828;2023-04-03T08:57:40;1.87;;;1.00;;
51238;SDS011;38154;47.548;18.828;2023-04-03T09:05:42;0.70;;;0.70;;
51238;SDS011;38154;47.548;18.828;2023-04-03T09:11:25;2.58;;;0.75;;
51238;SDS011;38154;47.548;18.828;2023-04-03T09:13:57;3.22;;;1.65;;
51238;SDS011;38154;47.548;18.828;2023-04-03T09:19:18;4.95;;;2.75;;
51238;SDS011;38154;47.548;18.828;2023-04-03T09:21:56;2.92;;;1.33;;
51238;SDS011;38154;47.548;18.828;2023-04-03T09:24:45;1.52;;;0.70;;
51238;SDS011;38154;47.548;18.828;2023-04-03T09:27:15;0.80;;;0.80;;
51238;SDS011;38154;47.548;18.828;2023-04-03T09:29:42;3.27;;;1.47;;
51238;SDS011;38154;47.548;18.828;2023-04-03T09:34:52;1.30;;;0.70;;
51238;SDS011;38154;47.548;18.828;2023-04-03T09:37:33;0.90;;;0.57;;
51238;SDS011;38154;47.548;18.828;2023-04-03T09:42:50;1.75;;;1.42;;
51238;SDS011;38154;47.548;18.828;2023-04-03T09:45:23;1.30;;;1.00;;
51238;SDS011;38154;47.548;18.828;2023-04-03T09:53:29;0.70;;;0.60;;
51238;SDS011;38154;47.548;18.828;2023-04-03T09:55:55;1.40;;;0.90;;
51238;SDS011;38154;47.548;18.828;2023-04-03T09:58:31;2.53;;;1.52;;
51238;SDS011;38154;47.548;18.828;2023-04-03T10:01:04;5.45;;;2.78;;
51238;SDS011;38154;47.548;18.828;2023-04-03T10:03:31;7.22;;;3.55;;
51238;SDS011;38154;47.548;18.828;2023-04-03T10:06:01;16.65;;;7.78;;
51238;SDS011;38154;47.548;18.828;2023-04-03T10:08:32;4.20;;;2.08;;
51238;SDS011;38154;47.548;18.828;2023-04-03T10:11:10;16.55;;;7.15;;
51238;SDS011;38154;47.548;18.828;2023-04-03T10:16:43;22.33;;;8.48;;
51238;SDS011;38154;47.548;18.828;2023-04-03T10:19:25;16.67;;;7.30;;
51238;SDS011;38154;47.548;18.828;2023-04-03T10:36:05;5.25;;;1.67;;
51238;SDS011;38154;47.548;18.828;2023-04-03T10:44:37;3.25;;;1.45;;
51238;SDS011;38154;47.548;18.828;2023-04-03T10:47:10;3.25;;;2.17;;
51238;SDS011;38154;47.548;18.828;2023-04-03T10:58:31;1.67;;;1.50;;
51238;SDS011;38154;47.548;18.828;2023-04-03T11:01:02;0.90;;;0.90;;
51238;SDS011;38154;47.548;18.828;2023-04-03T11:03:35;1.10;;;1.02;;
51238;SDS011;38154;47.548;18.828;2023-04-03T11:06:07;1.65;;;0.82;;
51238;SDS011;38154;47.548;18.828;2023-04-03T11:08:44;0.80;;;0.80;;
51238;SDS011;38154;47.548;18.828;2023-04-03T11:11:19;1.85;;;0.80;;
51238;SDS011;38154;47.548;18.828;2023-04-03T11:13:55;1.58;;;0.90;;
51238;SDS011;38154;47.548;18.828;2023-04-03T11:16:27;1.15;;;0.90;;
51238;SDS011;38154;47.548;18.828;2023-04-03T11:18:58;0.95;;;0.95;;
51238;SDS011;38154;47.548;18.828;2023-04-03T11:21:28;0.95;;;0.70;;
51238;SDS011;38154;47.548;18.828;2023-04-03T11:24:01;0.75;;;0.75;;
51238;SDS011;38154;47.548;18.828;2023-04-03T11:26:31;0.80;;;0.80;;
51238;SDS011;38154;47.548;18.828;2023-04-03T11:29:06;2.00;;;1.37;;
51238;SDS011;38154;47.548;18.828;2023-04-03T11:31:42;1.75;;;1.40;;
51238;SDS011;38154;47.548;18.828;2023-04-03T11:37:00;4.47;;;2.45;;
51238;SDS011;38154;47.548;18.828;2023-04-03T11:39:32;1.42;;;1.27;;
51238;SDS011;38154;47.548;18.828;2023-04-03T11:42:22;1.70;;;1.25;;
51238;SDS011;38154;47.548;18.828;2023-04-03T11:47:48;3.08;;;2.00;;
51238;SDS011;38154;47.548;18.828;2023-04-03T12:11:19;1.90;;;1.77;;
51238;SDS011;38154;47.548;18.828;2023-04-03T12:22:06;1.87;;;1.20;;
51238;SDS011;38154;47.548;18.828;2023-04-03T12:26:44;1.33;;;1.10;;
51238;SDS011;38154;47.548;18.828;2023-04-03T12:37:44;4.25;;;2.30;;
51238;SDS011;38154;47.548;18.828;2023-04-03T12:40:30;3.58;;;1.75;;
51238;SDS011;38154;47.548;18.828;2023-04-03T12:43:09;1.12;;;1.10;;
51238;SDS011;38154;47.548;18.828;2023-04-03T12:45:59;2.75;;;1.67;;
51238;SDS011;38154;47.548;18.828;2023-04-03T12:48:46;7.97;;;1.65;;
51238;SDS011;38154;47.548;18.828;2023-04-03T12:51:19;1.83;;;1.58;;
51238;SDS011;38154;47.548;18.828;2023-04-03T12:53:49;1.60;;;1.50;;
51238;SDS011;38154;47.548;18.828;2023-04-03T12:58:52;1.77;;;1.40;;
51238;SDS011;38154;47.548;18.828;2023-04-03T13:01:37;2.25;;;1.40;;
51238;SDS011;38154;47.548;18.828;2023-04-03T13:04:04;6.40;;;1.65;;
51238;SDS011;38154;47.548;18.828;2023-04-03T13:06:31;1.60;;;1.42;;
51238;SDS011;38154;47.548;18.828;2023-04-03T13:09:21;1.55;;;1.45;;
51238;SDS011;38154;47.548;18.828;2023-04-03T13:12:03;1.45;;;1.20;;
51238;SDS011;38154;47.548;18.828;2023-04-03T13:14:37;1.20;;;1.10;;
51238;SDS011;38154;47.548;18.828;2023-04-03T13:17:10;2.27;;;1.63;;
51238;SDS011;38154;47.548;18.828;2023-04-03T13:19:39;3.50;;;1.50;;
51238;SDS011;38154;47.548;18.828;2023-04-03T13:22:50;1.60;;;1.45;;
51238;SDS011;38154;47.548;18.828;2023-04-03T13:25:05;3.12;;;1.55;;
51238;SDS011;38154;47.548;18.828;2023-04-03T13:27:34;2.80;;;1.42;;
51238;SDS011;38154;47.548;18.828;2023-04-03T13:30:02;2.30;;;1.50;;
51238;SDS011;38154;47.548;18.828;2023-04-03T13:32:29;1.55;;;1.40;;
51238;SDS011;38154;47.548;18.828;2023-04-03T13:34:57;2.00;;;1.73;;
51238;SDS011;38154;47.548;18.828;2023-04-03T13:37:28;1.75;;;1.60;;
51238;SDS011;38154;47.548;18.828;2023-04-03T13:39:57;1.77;;;1.40;;
51238;SDS011;38154;47.548;18.828;2023-04-03T13:42:38;1.30;;;1.20;;
51238;SDS011;38154;47.548;18.828;2023-04-03T13:47:42;2.83;;;1.90;;
51238;SDS011;38154;47.548;18.828;2023-04-03T13:50:14;1.77;;;1.33;;
51238;SDS011;38154;47.548;18.828;2023-04-03T13:52:45;2.45;;;1.80;;
51238;SDS011;38154;47.548;18.828;2023-04-03T13:55:23;2.62;;;2.22;;
51238;SDS011;38154;47.548;18.828;2023-04-03T14:00:50;1.65;;;1.40;;
51238;SDS011;38154;47.548;18.828;2023-04-03T14:03:54;3.58;;;1.90;;
51238;SDS011;38154;47.548;18.828;2023-04-03T14:06:20;2.00;;;1.80;;
51238;SDS011;38154;47.548;18.828;2023-04-03T14:08:46;2.63;;;1.63;;
51238;SDS011;38154;47.548;18.828;2023-04-03T14:11:15;1.10;;;1.10;;
51238;SDS011;38154;47.548;18.828;2023-04-03T14:13:43;1.45;;;1.35;;
51238;SDS011;38154;47.548;18.828;2023-04-03T14:16:15;4.00;;;2.78;;
51238;SDS011;38154;47.548;18.828;2023-04-03T14:18:44;5.03;;;2.00;;
51238;SDS011;38154;47.548;18.828;2023-04-03T14:21:12;1.70;;;1.45;;
51238;SDS011;38154;47.548;18.828;2023-04-03T14:23:39;5.00;;;1.87;;
51238;SDS011;38154;47.548;18.828;2023-04-03T14:26:13;2.22;;;1.85;;
51238;SDS011;38154;47.548;18.828;2023-04-03T14:28:42;2.60;;;0.95;;
51238;SDS011;38154;47.548;18.828;2023-04-03T14:31:09;5.85;;;1.70;;
51238;SDS011;38154;47.548;18.828;2023-04-03T14:33:36;3.12;;;1.70;;
51238;SDS011;38154;47.548;18.828;2023-04-03T14:36:16;2.33;;;1.92;;
51238;SDS011;38154;47.548;18.828;2023-04-03T14:38:45;2.15;;;1.37;;
51238;SDS011;38154;47.548;18.828;2023-04-03T14:41:12;2.62;;;1.35;;
51238;SDS011;38154;47.548;18.828;2023-04-03T14:43:40;2.12;;;1.30;;
51238;SDS011;38154;47.548;18.828;2023-04-03T14:46:17;2.03;;;1.90;;
51238;SDS011;38154;47.548;18.828;2023-04-03T14:49:02;1.15;;;1.15;;
51238;SDS011;38154;47.548;18.828;2023-04-03T14:51:33;4.05;;;1.85;;
51238;SDS011;38154;47.548;18.828;2023-04-03T14:53:59;1.45;;;1.35;;
51238;SDS011;38154;47.548;18.828;2023-04-03T14:56:27;3.45;;;1.50;;
51238;SDS011;38154;47.548;18.828;2023-04-03T14:58:58;1.60;;;1.50;;
51238;SDS011;38154;47.548;18.828;2023-04-03T15:01:26;1.62;;;1.50;;
51238;SDS011;38154;47.548;18.828;2023-04-03T15:06:18;1.45;;;1.35;;
51238;SDS011;38154;47.548;18.828;2023-04-03T15:08:46;2.93;;;1.40;;
51238;SDS011;38154;47.548;18.828;2023-04-03T15:11:13;2.78;;;1.50;;
51238;SDS011;38154;47.548;18.828;2023-04-03T15:13:39;1.48;;;1.23;;
51238;SDS011;38154;47.548;18.828;2023-04-03T15:16:10;1.40;;;1.30;;
51238;SDS011;38154;47.548;18.828;2023-04-03T15:18:40;8.27;;;2.05;;
51238;SDS011;38154;47.548;18.828;2023-04-03T15:21:06;2.45;;;2.20;;
51238;SDS011;38154;47.548;18.828;2023-04-03T15:23:32;2.92;;;2.08;;
51238;SDS011;38154;47.548;18.828;2023-04-03T15:25:58;1.50;;;1.40;;
51238;SDS011;38154;47.548;18.828;2023-04-03T15:28:32;2.63;;;1.40;;
51238;SDS011;38154;47.548;18.828;2023-04-03T15:31:00;1.65;;;1.45;;
51238;SDS011;38154;47.548;18.828;2023-04-03T15:33:27;2.40;;;1.17;;
51238;SDS011;38154;47.548;18.828;2023-04-03T15:35:53;4.40;;;1.48;;
51238;SDS011;38154;47.548;18.828;2023-04-03T15:38:20;1.52;;;1.42;;
51238;SDS011;38154;47.548;18.828;2023-04-03T15:40:46;1.20;;;1.10;;
51238;SDS011;38154;47.548;18.828;2023-04-03T15:43:14;2.50;;;1.60;;
51238;SDS011;38154;47.548;18.828;2023-04-03T15:45:41;3.58;;;1.50;;
51238;SDS011;38154;47.548;18.828;2023-04-03T15:48:09;2.70;;;1.55;;
51238;SDS011;38154;47.548;18.828;2023-04-03T15:50:35;3.05;;;1.80;;
51238;SDS011;38154;47.548;18.828;2023-04-03T15:53:02;4.22;;;2.22;;
51238;SDS011;38154;47.548;18.828;2023-04-03T15:55:29;2.62;;;2.40;;
51238;SDS011;38154;47.548;18.828;2023-04-03T15:57:58;4.53;;;2.58;;
51238;SDS011;38154;47.548;18.828;2023-04-03T16:00:24;2.30;;;2.10;;
51238;SDS011;38154;47.548;18.828;2023-04-03T16:02:52;2.90;;;2.10;;
51238;SDS011;38154;47.548;18.828;2023-04-03T16:05:20;2.65;;;1.87;;
51238;SDS011;38154;47.548;18.828;2023-04-03T16:07:47;3.42;;;1.98;;
51238;SDS011;38154;47.548;18.828;2023-04-03T16:10:14;4.10;;;2.07;;
51238;SDS011;38154;47.548;18.828;2023-04-03T16:12:41;1.52;;;1.25;;
51238;SDS011;38154;47.548;18.828;2023-04-03T16:15:07;2.95;;;1.77;;
51238;SDS011;38154;47.548;18.828;2023-04-03T16:17:34;2.17;;;1.48;;
51238;SDS011;38154;47.548;18.828;2023-04-03T16:20:01;2.08;;;1.40;;
51238;SDS011;38154;47.548;18.828;2023-04-03T16:22:28;4.70;;;2.03;;
51238;SDS011;38154;47.548;18.828;2023-04-03T16:24:55;2.10;;;1.15;;
51238;SDS011;38154;47.548;18.828;2023-04-03T16:27:21;2.55;;;1.70;;
51238;SDS011;38154;47.548;18.828;2023-04-03T16:29:51;2.70;;;1.90;;
51238;SDS011;38154;47.548;18.828;2023-04-03T16:32:17;3.62;;;1.70;;
51238;SDS011;38154;47.548;18.828;2023-04-03T16:34:43;3.78;;;1.42;;
51238;SDS011;38154;47.548;18.828;2023-04-03T16:37:09;3.92;;;1.62;;
51238;SDS011;38154;47.548;18.828;2023-04-03T16:39:35;3.37;;;1.50;;
51238;SDS011;38154;47.548;18.828;2023-04-03T16:42:01;4.17;;;1.53;;
51238;SDS011;38154;47.548;18.828;2023-04-03T16:44:26;1.07;;;0.97;;
51238;SDS011;38154;47.548;18.828;2023-04-03T16:46:52;1.58;;;1.48;;
51238;SDS011;38154;47.548;18.828;2023-04-03T16:49:18;2.72;;;2.17;;
51238;SDS011;38154;47.548;18.828;2023-04-03T16:51:44;2.27;;;2.07;;
51238;SDS011;38154;47.548;18.828;2023-04-03T16:54:11;1.90;;;1.42;;